sensor_id;sensor_type;location;lat;lon;timestamp;pressure;altitude;pressure_sealevel;temperature;humidity
65872;BME280;52653;50.080;21.992;2022-08-18T00:00:39;98862.73;;;19.39;80.87
65872;BME280;52653;50.080;21.992;2022-08-18T00:03:15;98851.03;;;19.31;80.61
65872;BME280;52653;50.080;21.992;2022-08-18T00:06:16;98847.70;;;19.26;81.05
65872;BME280;52653;50.080;21.992;2022-08-18T00:08:49;98846.17;;;19.25;80.99
65872;BME280;52653;50.080;21.992;2022-08-18T00:11:23;98843.80;;;19.26;81.16
65872;BME280;52653;50.080;21.992;2022-08-18T00:13:55;98847.25;;;19.28;81.15
65872;BME280;52653;50.080;21.992;2022-08-18T00:16:29;98853.80;;;19.29;80.88
65872;BME280;52653;50.080;21.992;2022-08-18T00:19:01;98861.20;;;19.27;81.16
65872;BME280;52653;50.080;21.992;2022-08-18T00:21:39;98864.48;;;19.22;81.03
65872;BME280;52653;50.080;21.992;2022-08-18T00:24:11;98865.27;;;19.16;81.42
65872;BME280;52653;50.080;21.992;2022-08-18T00:26:51;98864.32;;;19.14;81.27
65872;BME280;52653;50.080;21.992;2022-08-18T00:29:24;98865.49;;;19.12;81.74
65872;BME280;52653;50.080;21.992;2022-08-18T00:31:56;98866.40;;;19.08;81.70
65872;BME280;52653;50.080;21.992;2022-08-18T00:34:28;98869.79;;;19.08;81.62
65872;BME280;52653;50.080;21.992;2022-08-18T00:37:01;98869.31;;;19.06;82.25
65872;BME280;52653;50.080;21.992;2022-08-18T00:39:33;98869.38;;;19.09;82.39
65872;BME280;52653;50.080;21.992;2022-08-18T00:42:18;98875.49;;;19.11;82.35
65872;BME280;52653;50.080;21.992;2022-08-18T00:45:03;98875.97;;;19.09;82.08
65872;BME280;52653;50.080;21.992;2022-08-18T00:47:36;98873.95;;;19.06;82.35
65872;BME280;52653;50.080;21.992;2022-08-18T00:50:16;98867.91;;;19.09;82.28
65872;BME280;52653;50.080;21.992;2022-08-18T00:52:52;98869.39;;;19.12;81.96
65872;BME280;52653;50.080;21.992;2022-08-18T00:55:28;98874.39;;;19.08;81.80
65872;BME280;52653;50.080;21.992;2022-08-18T00:58:04;98876.77;;;19.07;81.84
65872;BME280;52653;50.080;21.992;2022-08-18T01:00:37;98879.15;;;19.09;82.10
65872;BME280;52653;50.080;21.992;2022-08-18T01:03:13;98882.83;;;19.06;81.33
65872;BME280;52653;50.080;21.992;2022-08-18T01:06:00;98887.80;;;18.99;81.18
65872;BME280;52653;50.080;21.992;2022-08-18T01:08:33;98888.11;;;18.92;81.43
65872;BME280;52653;50.080;21.992;2022-08-18T01:11:05;98891.58;;;18.87;81.31
65872;BME280;52653;50.080;21.992;2022-08-18T01:13:49;98890.51;;;18.83;81.29
65872;BME280;52653;50.080;21.992;2022-08-18T01:16:21;98894.10;;;18.78;81.49
65872;BME280;52653;50.080;21.992;2022-08-18T01:19:27;98893.41;;;18.74;81.33
65872;BME280;52653;50.080;21.992;2022-08-18T01:22:21;98894.45;;;18.71;82.00
65872;BME280;52653;50.080;21.992;2022-08-18T01:24:57;98903.04;;;18.69;82.00
65872;BME280;52653;50.080;21.992;2022-08-18T01:27:48;98911.23;;;18.69;81.97
65872;BME280;52653;50.080;21.992;2022-08-18T01:30:20;98909.49;;;18.63;81.65
65872;BME280;52653;50.080;21.992;2022-08-18T01:32:55;98911.45;;;18.64;82.02
65872;BME280;52653;50.080;21.992;2022-08-18T01:35:31;98907.13;;;18.65;81.77
65872;BME280;52653;50.080;21.992;2022-08-18T01:38:11;98906.41;;;18.65;81.76
65872;BME280;52653;50.080;21.992;2022-08-18T01:40:43;98902.06;;;18.63;81.99
65872;BME280;52653;50.080;21.992;2022-08-18T01:43:35;98897.71;;;18.52;81.92
65872;BME280;52653;50.080;21.992;2022-08-18T01:46:07;98895.43;;;18.44;82.16
65872;BME280;52653;50.080;21.992;2022-08-18T01:48:39;98895.09;;;18.40;81.89
65872;BME280;52653;50.080;21.992;2022-08-18T01:51:12;98894.61;;;18.35;81.87
65872;BME280;52653;50.080;21.992;2022-08-18T01:53:44;98903.45;;;18.27;82.02
65872;BME280;52653;50.080;21.992;2022-08-18T01:56:21;98908.36;;;18.20;82.41
65872;BME280;52653;50.080;21.992;2022-08-18T01:58:54;98915.45;;;18.17;82.62
65872;BME280;52653;50.080;21.992;2022-08-18T02:01:26;98916.88;;;18.16;82.71
65872;BME280;52653;50.080;21.992;2022-08-18T02:04:06;98916.16;;;18.21;82.90
65872;BME280;52653;50.080;21.992;2022-08-18T02:06:59;98916.67;;;18.25;82.78
65872;BME280;52653;50.080;21.992;2022-08-18T02:09:34;98910.88;;;18.24;82.54
65872;BME280;52653;50.080;21.992;2022-08-18T02:12:07;98906.09;;;18.15;82.10
65872;BME280;52653;50.080;21.992;2022-08-18T02:14:39;98902.69;;;18.08;82.36
65872;BME280;52653;50.080;21.992;2022-08-18T02:17:12;98900.59;;;18.03;82.42
65872;BME280;52653;50.080;21.992;2022-08-18T02:19:46;98901.46;;;17.95;82.33
65872;BME280;52653;50.080;21.992;2022-08-18T02:22:19;98902.29;;;17.93;82.59
65872;BME280;52653;50.080;21.992;2022-08-18T02:24:51;98905.52;;;17.92;82.89
65872;BME280;52653;50.080;21.992;2022-08-18T02:27:23;98907.48;;;17.92;82.99
65872;BME280;52653;50.080;21.992;2022-08-18T02:29:59;98910.27;;;17.93;83.21
65872;BME280;52653;50.080;21.992;2022-08-18T02:32:33;98908.39;;;17.95;83.55
65872;BME280;52653;50.080;21.992;2022-08-18T02:35:06;98904.63;;;18.00;84.00
65872;BME280;52653;50.080;21.992;2022-08-18T02:37:41;98903.58;;;18.00;83.92
65872;BME280;52653;50.080;21.992;2022-08-18T02:40:18;98897.89;;;17.96;84.36
65872;BME280;52653;50.080;21.992;2022-08-18T02:42:50;98898.73;;;18.01;84.64
65872;BME280;52653;50.080;21.992;2022-08-18T02:45:23;98901.52;;;18.07;84.56
65872;BME280;52653;50.080;21.992;2022-08-18T02:47:58;98896.27;;;18.09;83.93
65872;BME280;52653;50.080;21.992;2022-08-18T02:50:33;98893.06;;;18.01;83.51
65872;BME280;52653;50.080;21.992;2022-08-18T02:53:14;98893.58;;;17.97;83.50
65872;BME280;52653;50.080;21.992;2022-08-18T02:55:51;98899.31;;;17.96;83.66
65872;BME280;52653;50.080;21.992;2022-08-18T02:58:23;98905.70;;;17.92;83.89
65872;BME280;52653;50.080;21.992;2022-08-18T03:01:01;98905.70;;;17.88;83.87
65872;BME280;52653;50.080;21.992;2022-08-18T03:03:32;98901.88;;;17.86;83.98
65872;BME280;52653;50.080;21.992;2022-08-18T03:06:06;98905.33;;;17.84;83.58
65872;BME280;52653;50.080;21.992;2022-08-18T03:08:38;98907.20;;;17.82;83.73
65872;BME280;52653;50.080;21.992;2022-08-18T03:11:09;98916.45;;;17.81;83.54
65872;BME280;52653;50.080;21.992;2022-08-18T03:13:42;98921.44;;;17.81;83.29
65872;BME280;52653;50.080;21.992;2022-08-18T03:16:14;98920.30;;;17.83;83.05
65872;BME280;52653;50.080;21.992;2022-08-18T03:18:46;98919.29;;;17.81;82.83
65872;BME280;52653;50.080;21.992;2022-08-18T03:21:21;98922.12;;;17.77;82.48
65872;BME280;52653;50.080;21.992;2022-08-18T03:23:55;98922.08;;;17.74;82.78
65872;BME280;52653;50.080;21.992;2022-08-18T03:26:32;98924.64;;;17.67;82.86
65872;BME280;52653;50.080;21.992;2022-08-18T03:29:04;98926.22;;;17.62;82.63
65872;BME280;52653;50.080;21.992;2022-08-18T03:31:46;98923.06;;;17.62;82.77
65872;BME280;52653;50.080;21.992;2022-08-18T03:34:28;98923.31;;;17.60;82.56
65872;BME280;52653;50.080;21.992;2022-08-18T03:37:01;98922.05;;;17.61;82.97
65872;BME280;52653;50.080;21.992;2022-08-18T03:39:33;98923.31;;;17.64;82.84
65872;BME280;52653;50.080;21.992;2022-08-18T03:42:05;98926.06;;;17.72;82.99
65872;BME280;52653;50.080;21.992;2022-08-18T03:44:37;98928.08;;;17.79;82.77
65872;BME280;52653;50.080;21.992;2022-08-18T03:47:10;98931.64;;;17.79;82.38
65872;BME280;52653;50.080;21.992;2022-08-18T03:49:41;98937.45;;;17.71;81.96
65872;BME280;52653;50.080;21.992;2022-08-18T03:52:15;98942.00;;;17.63;81.88
65872;BME280;52653;50.080;21.992;2022-08-18T03:54:47;98944.34;;;17.53;81.84
65872;BME280;52653;50.080;21.992;2022-08-18T03:57:21;98945.02;;;17.45;82.01
65872;BME280;52653;50.080;21.992;2022-08-18T03:59:56;98949.76;;;17.42;82.41
65872;BME280;52653;50.080;21.992;2022-08-18T04:02:28;98958.79;;;17.43;82.72
65872;BME280;52653;50.080;21.992;2022-08-18T04:05:20;98962.66;;;17.47;82.88
65872;BME280;52653;50.080;21.992;2022-08-18T04:07:52;98964.52;;;17.54;83.15
65872;BME280;52653;50.080;21.992;2022-08-18T04:10:25;98969.79;;;17.65;83.55
65872;BME280;52653;50.080;21.992;2022-08-18T04:12:57;98975.81;;;17.79;83.81
65872;BME280;52653;50.080;21.992;2022-08-18T04:15:33;98971.80;;;17.94;84.09
65872;BME280;52653;50.080;21.992;2022-08-18T04:18:05;98973.61;;;18.10;83.73
65872;BME280;52653;50.080;21.992;2022-08-18T04:20:38;98973.48;;;18.21;83.52
65872;BME280;52653;50.080;21.992;2022-08-18T04:23:29;98974.56;;;18.34;83.40
65872;BME280;52653;50.080;21.992;2022-08-18T04:26:13;98983.11;;;18.45;83.70
65872;BME280;52653;50.080;21.992;2022-08-18T04:28:49;98988.09;;;18.58;83.14
65872;BME280;52653;50.080;21.992;2022-08-18T04:31:20;98986.00;;;18.69;83.39
65872;BME280;52653;50.080;21.992;2022-08-18T04:33:54;98990.31;;;18.88;83.46
65872;BME280;52653;50.080;21.992;2022-08-18T04:36:27;98987.79;;;19.05;83.02
65872;BME280;52653;50.080;21.992;2022-08-18T04:39:00;98989.65;;;19.18;82.80
65872;BME280;52653;50.080;21.992;2022-08-18T04:41:33;98988.41;;;19.26;82.31
65872;BME280;52653;50.080;21.992;2022-08-18T04:44:07;98989.27;;;19.34;81.99
65872;BME280;52653;50.080;21.992;2022-08-18T04:46:41;98982.61;;;19.43;81.90
65872;BME280;52653;50.080;21.992;2022-08-18T04:49:15;98978.85;;;19.51;81.41
65872;BME280;52653;50.080;21.992;2022-08-18T04:51:51;98973.52;;;19.55;81.33
65872;BME280;52653;50.080;21.992;2022-08-18T04:55:01;98968.37;;;19.59;81.21
65872;BME280;52653;50.080;21.992;2022-08-18T04:57:33;98964.65;;;19.62;81.16
65872;BME280;52653;50.080;21.992;2022-08-18T05:00:07;98965.30;;;19.71;81.54
65872;BME280;52653;50.080;21.992;2022-08-18T05:02:43;98967.42;;;19.75;81.44
65872;BME280;52653;50.080;21.992;2022-08-18T05:05:15;98963.83;;;19.79;81.54
65872;BME280;52653;50.080;21.992;2022-08-18T05:07:47;98962.71;;;19.94;82.03
65872;BME280;52653;50.080;21.992;2022-08-18T05:10:21;98959.39;;;20.21;82.56
65872;BME280;52653;50.080;21.992;2022-08-18T05:12:53;98963.54;;;20.45;82.46
65872;BME280;52653;50.080;21.992;2022-08-18T05:15:25;98962.15;;;20.58;81.61
65872;BME280;52653;50.080;21.992;2022-08-18T05:17:56;98959.52;;;20.64;81.29
65872;BME280;52653;50.080;21.992;2022-08-18T05:20:31;98960.10;;;20.67;80.99
65872;BME280;52653;50.080;21.992;2022-08-18T05:23:06;98959.83;;;20.71;81.29
65872;BME280;52653;50.080;21.992;2022-08-18T05:25:38;98951.16;;;20.77;81.10
65872;BME280;52653;50.080;21.992;2022-08-18T05:28:10;98954.09;;;20.79;80.88
65872;BME280;52653;50.080;21.992;2022-08-18T05:30:44;98949.90;;;20.77;80.84
65872;BME280;52653;50.080;21.992;2022-08-18T05:33:16;98952.10;;;20.79;81.10
65872;BME280;52653;50.080;21.992;2022-08-18T05:35:53;98957.75;;;20.87;81.10
65872;BME280;52653;50.080;21.992;2022-08-18T05:38:37;98959.02;;;21.00;81.42
65872;BME280;52653;50.080;21.992;2022-08-18T05:41:23;98962.24;;;21.09;80.68
65872;BME280;52653;50.080;21.992;2022-08-18T05:43:57;98960.27;;;21.23;80.52
65872;BME280;52653;50.080;21.992;2022-08-18T05:46:36;98964.00;;;21.43;80.95
65872;BME280;52653;50.080;21.992;2022-08-18T05:49:11;98966.23;;;21.63;80.49
65872;BME280;52653;50.080;21.992;2022-08-18T05:51:46;98968.55;;;21.76;79.70
65872;BME280;52653;50.080;21.992;2022-08-18T05:54:20;98966.59;;;21.91;79.83
65872;BME280;52653;50.080;21.992;2022-08-18T05:57:14;98972.12;;;22.10;79.62
65872;BME280;52653;50.080;21.992;2022-08-18T05:59:48;98974.27;;;22.28;79.21
65872;BME280;52653;50.080;21.992;2022-08-18T06:02:29;98973.36;;;22.44;78.75
65872;BME280;52653;50.080;21.992;2022-08-18T06:05:07;98970.34;;;22.61;78.42
65872;BME280;52653;50.080;21.992;2022-08-18T06:07:44;98969.09;;;22.67;76.86
65872;BME280;52653;50.080;21.992;2022-08-18T06:10:20;98967.48;;;22.70;77.06
65872;BME280;52653;50.080;21.992;2022-08-18T06:12:55;98967.59;;;22.77;77.30
65872;BME280;52653;50.080;21.992;2022-08-18T06:15:31;98974.66;;;22.84;76.99
65872;BME280;52653;50.080;21.992;2022-08-18T06:18:22;98979.05;;;22.91;76.32
65872;BME280;52653;50.080;21.992;2022-08-18T06:21:15;98984.60;;;23.06;76.35
65872;BME280;52653;50.080;21.992;2022-08-18T06:23:57;98985.92;;;23.22;75.80
65872;BME280;52653;50.080;21.992;2022-08-18T06:26:39;98986.41;;;23.31;75.17
65872;BME280;52653;50.080;21.992;2022-08-18T06:29:23;98991.83;;;23.39;75.02
65872;BME280;52653;50.080;21.992;2022-08-18T06:32:08;98992.79;;;23.51;75.02
65872;BME280;52653;50.080;21.992;2022-08-18T06:34:58;98997.55;;;23.67;74.72
65872;BME280;52653;50.080;21.992;2022-08-18T06:37:38;99000.96;;;23.81;74.30
65872;BME280;52653;50.080;21.992;2022-08-18T06:40:33;99004.07;;;23.96;73.82
65872;BME280;52653;50.080;21.992;2022-08-18T06:43:11;99003.05;;;24.11;73.52
65872;BME280;52653;50.080;21.992;2022-08-18T06:45:46;99005.89;;;24.31;73.38
65872;BME280;52653;50.080;21.992;2022-08-18T06:48:26;99002.91;;;24.49;72.90
65872;BME280;52653;50.080;21.992;2022-08-18T06:51:02;99002.36;;;24.62;71.85
65872;BME280;52653;50.080;21.992;2022-08-18T06:53:53;99005.41;;;24.75;71.90
65872;BME280;52653;50.080;21.992;2022-08-18T06:56:33;99008.84;;;24.88;71.29
65872;BME280;52653;50.080;21.992;2022-08-18T06:59:22;99005.94;;;24.98;70.83
65872;BME280;52653;50.080;21.992;2022-08-18T07:01:57;99003.89;;;25.02;69.44
65872;BME280;52653;50.080;21.992;2022-08-18T07:04:34;98998.98;;;25.06;69.22
65872;BME280;52653;50.080;21.992;2022-08-18T07:07:19;98993.08;;;25.06;68.62
65872;BME280;52653;50.080;21.992;2022-08-18T07:10:29;98996.38;;;25.12;69.11
65872;BME280;52653;50.080;21.992;2022-08-18T07:13:19;99000.30;;;25.20;68.53
65872;BME280;52653;50.080;21.992;2022-08-18T07:15:52;98998.82;;;25.26;68.27
65872;BME280;52653;50.080;21.992;2022-08-18T07:18:28;98999.52;;;25.34;68.03
65872;BME280;52653;50.080;21.992;2022-08-18T07:21:01;99000.63;;;25.36;67.26
65872;BME280;52653;50.080;21.992;2022-08-18T07:23:35;99002.67;;;25.39;67.85
65872;BME280;52653;50.080;21.992;2022-08-18T07:26:11;99004.13;;;25.44;67.46
65872;BME280;52653;50.080;21.992;2022-08-18T07:28:47;99003.67;;;25.55;67.76
65872;BME280;52653;50.080;21.992;2022-08-18T07:31:26;99006.02;;;25.73;67.69
65872;BME280;52653;50.080;21.992;2022-08-18T07:34:08;99006.15;;;25.98;67.27
65872;BME280;52653;50.080;21.992;2022-08-18T07:36:46;99008.77;;;26.21;65.69
65872;BME280;52653;50.080;21.992;2022-08-18T07:39:25;99012.30;;;26.33;64.96
65872;BME280;52653;50.080;21.992;2022-08-18T07:42:03;99002.48;;;26.45;64.88
65872;BME280;52653;50.080;21.992;2022-08-18T07:44:48;99002.10;;;26.57;64.16
65872;BME280;52653;50.080;21.992;2022-08-18T07:47:29;99001.89;;;26.73;64.77
65872;BME280;52653;50.080;21.992;2022-08-18T07:50:05;99003.64;;;26.95;63.64
65872;BME280;52653;50.080;21.992;2022-08-18T07:53:06;99001.95;;;27.12;62.71
65872;BME280;52653;50.080;21.992;2022-08-18T07:55:48;99003.38;;;27.14;61.71
65872;BME280;52653;50.080;21.992;2022-08-18T07:58:25;99002.61;;;27.17;61.40
65872;BME280;52653;50.080;21.992;2022-08-18T08:01:06;99007.86;;;27.24;61.53
65872;BME280;52653;50.080;21.992;2022-08-18T08:03:52;99006.88;;;27.54;61.60
65872;BME280;52653;50.080;21.992;2022-08-18T08:06:31;99006.85;;;27.92;60.69
65872;BME280;52653;50.080;21.992;2022-08-18T08:09:22;99001.83;;;28.20;59.10
65872;BME280;52653;50.080;21.992;2022-08-18T08:11:58;99006.72;;;28.39;58.64
65872;BME280;52653;50.080;21.992;2022-08-18T08:14:34;99006.36;;;28.58;57.45
65872;BME280;52653;50.080;21.992;2022-08-18T08:17:14;99010.45;;;28.84;57.32
65872;BME280;52653;50.080;21.992;2022-08-18T08:20:12;99012.05;;;29.01;56.61
65872;BME280;52653;50.080;21.992;2022-08-18T08:22:57;99009.79;;;29.09;56.20
65872;BME280;52653;50.080;21.992;2022-08-18T08:25:35;99003.45;;;29.23;55.83
65872;BME280;52653;50.080;21.992;2022-08-18T08:28:26;99009.77;;;29.42;55.06
65872;BME280;52653;50.080;21.992;2022-08-18T08:31:09;99011.59;;;29.52;54.23
65872;BME280;52653;50.080;21.992;2022-08-18T08:34:08;99009.70;;;29.69;53.70
65872;BME280;52653;50.080;21.992;2022-08-18T08:36:45;99004.10;;;29.75;53.96
65872;BME280;52653;50.080;21.992;2022-08-18T08:39:22;99001.34;;;29.71;52.97
65872;BME280;52653;50.080;21.992;2022-08-18T08:42:11;99003.37;;;29.77;53.13
65872;BME280;52653;50.080;21.992;2022-08-18T08:45:06;99002.29;;;29.81;52.90
65872;BME280;52653;50.080;21.992;2022-08-18T08:47:43;99001.83;;;29.88;53.28
65872;BME280;52653;50.080;21.992;2022-08-18T08:50:20;99001.17;;;29.87;52.66
65872;BME280;52653;50.080;21.992;2022-08-18T08:52:55;99003.75;;;29.83;51.52
65872;BME280;52653;50.080;21.992;2022-08-18T08:55:33;99003.45;;;29.70;52.37
65872;BME280;52653;50.080;21.992;2022-08-18T08:58:18;99002.59;;;29.60;53.27
65872;BME280;52653;50.080;21.992;2022-08-18T09:00:55;98996.48;;;29.69;53.09
65872;BME280;52653;50.080;21.992;2022-08-18T09:03:35;98992.03;;;29.80;51.85
65872;BME280;52653;50.080;21.992;2022-08-18T09:06:20;98989.77;;;29.97;52.68
65872;BME280;52653;50.080;21.992;2022-08-18T09:09:23;98989.50;;;30.04;52.09
65872;BME280;52653;50.080;21.992;2022-08-18T09:12:13;98990.54;;;30.11;51.93
65872;BME280;52653;50.080;21.992;2022-08-18T09:17:59;98982.14;;;29.96;50.28
65872;BME280;52653;50.080;21.992;2022-08-18T09:20:49;98980.88;;;29.94;50.20
65872;BME280;52653;50.080;21.992;2022-08-18T09:23:25;98975.10;;;30.00;50.77
65872;BME280;52653;50.080;21.992;2022-08-18T09:26:20;98978.66;;;30.06;51.34
65872;BME280;52653;50.080;21.992;2022-08-18T09:28:57;98979.38;;;30.14;50.88
65872;BME280;52653;50.080;21.992;2022-08-18T09:31:30;98980.91;;;30.15;51.25
65872;BME280;52653;50.080;21.992;2022-08-18T09:34:22;98978.20;;;30.15;50.36
65872;BME280;52653;50.080;21.992;2022-08-18T09:37:07;98969.95;;;30.17;50.03
65872;BME280;52653;50.080;21.992;2022-08-18T09:39:48;98964.58;;;30.22;50.13
65872;BME280;52653;50.080;21.992;2022-08-18T09:43:11;98968.14;;;30.32;50.23
65872;BME280;52653;50.080;21.992;2022-08-18T09:45:57;98969.89;;;30.33;50.33
65872;BME280;52653;50.080;21.992;2022-08-18T09:48:32;98966.61;;;30.35;49.71
65872;BME280;52653;50.080;21.992;2022-08-18T09:51:30;98972.29;;;30.15;49.14
65872;BME280;52653;50.080;21.992;2022-08-18T09:54:20;98967.31;;;29.98;50.00
65872;BME280;52653;50.080;21.992;2022-08-18T09:57:23;98964.31;;;29.91;50.48
65872;BME280;52653;50.080;21.992;2022-08-18T10:03:21;98963.54;;;29.94;49.77
65872;BME280;52653;50.080;21.992;2022-08-18T10:06:05;98966.83;;;30.13;50.47
65872;BME280;52653;50.080;21.992;2022-08-18T10:08:56;98971.58;;;30.34;49.18
65872;BME280;52653;50.080;21.992;2022-08-18T10:12:08;98969.27;;;30.41;48.10
65872;BME280;52653;50.080;21.992;2022-08-18T10:15:00;98969.31;;;30.54;47.96
65872;BME280;52653;50.080;21.992;2022-08-18T10:17:40;98964.76;;;30.64;47.28
65872;BME280;52653;50.080;21.992;2022-08-18T10:20:32;98967.11;;;30.74;48.57
65872;BME280;52653;50.080;21.992;2022-08-18T10:23:12;98967.35;;;30.75;48.41
65872;BME280;52653;50.080;21.992;2022-08-18T10:29:54;98972.71;;;30.97;47.93
65872;BME280;52653;50.080;21.992;2022-08-18T10:32:39;98979.15;;;31.22;47.24
65872;BME280;52653;50.080;21.992;2022-08-18T10:35:57;98982.67;;;31.42;45.72
65872;BME280;52653;50.080;21.992;2022-08-18T10:38:49;98977.86;;;31.57;45.07
65872;BME280;52653;50.080;21.992;2022-08-18T10:41:31;98973.60;;;31.79;45.76
65872;BME280;52653;50.080;21.992;2022-08-18T10:44:05;98973.00;;;31.91;44.46
65872;BME280;52653;50.080;21.992;2022-08-18T10:46:58;98975.78;;;31.94;43.51
65872;BME280;52653;50.080;21.992;2022-08-18T10:49:31;98978.23;;;31.78;44.19
65872;BME280;52653;50.080;21.992;2022-08-18T10:52:15;98979.04;;;31.76;45.19
65872;BME280;52653;50.080;21.992;2022-08-18T10:55:08;98979.64;;;31.69;44.80
65872;BME280;52653;50.080;21.992;2022-08-18T10:58:11;98978.77;;;31.67;45.25
65872;BME280;52653;50.080;21.992;2022-08-18T11:01:03;98975.14;;;31.78;44.52
65872;BME280;52653;50.080;21.992;2022-08-18T11:03:51;98979.59;;;31.97;43.72
65872;BME280;52653;50.080;21.992;2022-08-18T11:06:49;98978.13;;;32.10;44.68
65872;BME280;52653;50.080;21.992;2022-08-18T11:09:25;98982.81;;;32.25;43.56
65872;BME280;52653;50.080;21.992;2022-08-18T11:12:00;98985.86;;;32.34;43.03
65872;BME280;52653;50.080;21.992;2022-08-18T11:15:09;98988.21;;;32.52;43.24
65872;BME280;52653;50.080;21.992;2022-08-18T11:18:06;98989.41;;;32.72;42.87
65872;BME280;52653;50.080;21.992;2022-08-18T11:20:44;98987.55;;;32.69;42.81
65872;BME280;52653;50.080;21.992;2022-08-18T11:23:30;98986.98;;;32.64;43.00
65872;BME280;52653;50.080;21.992;2022-08-18T11:26:29;98983.40;;;32.51;43.18
65872;BME280;52653;50.080;21.992;2022-08-18T11:29:01;98985.34;;;32.52;43.75
65872;BME280;52653;50.080;21.992;2022-08-18T11:31:45;98983.86;;;32.45;43.73
65872;BME280;52653;50.080;21.992;2022-08-18T11:34:40;98982.42;;;32.31;43.57
65872;BME280;52653;50.080;21.992;2022-08-18T11:37:29;98979.48;;;32.18;43.65
65872;BME280;52653;50.080;21.992;2022-08-18T11:40:28;98970.05;;;32.11;43.95
65872;BME280;52653;50.080;21.992;2022-08-18T11:43:25;98969.30;;;32.09;43.04
65872;BME280;52653;50.080;21.992;2022-08-18T11:46:28;98965.19;;;32.05;43.29
65872;BME280;52653;50.080;21.992;2022-08-18T11:49:14;98963.27;;;32.13;43.39
65872;BME280;52653;50.080;21.992;2022-08-18T11:51:57;98964.33;;;32.10;42.41
65872;BME280;52653;50.080;21.992;2022-08-18T11:54:38;98959.73;;;32.02;43.49
65872;BME280;52653;50.080;21.992;2022-08-18T11:57:39;98951.19;;;32.04;42.66
65872;BME280;52653;50.080;21.992;2022-08-18T12:00:40;98946.49;;;32.14;43.77
65872;BME280;52653;50.080;21.992;2022-08-18T12:03:36;98946.98;;;32.22;43.39
65872;BME280;52653;50.080;21.992;2022-08-18T12:06:19;98943.13;;;32.20;42.40
65872;BME280;52653;50.080;21.992;2022-08-18T12:09:02;98937.12;;;32.15;42.18
65872;BME280;52653;50.080;21.992;2022-08-18T12:11:36;98936.02;;;32.26;42.27
65872;BME280;52653;50.080;21.992;2022-08-18T12:14:23;98931.05;;;32.34;41.85
65872;BME280;52653;50.080;21.992;2022-08-18T12:17:07;98927.14;;;32.54;41.75
65872;BME280;52653;50.080;21.992;2022-08-18T12:19:40;98923.25;;;32.79;41.91
65872;BME280;52653;50.080;21.992;2022-08-18T12:22:17;98922.54;;;33.06;41.96
65872;BME280;52653;50.080;21.992;2022-08-18T12:24:52;98919.89;;;33.30;41.41
65872;BME280;52653;50.080;21.992;2022-08-18T12:27:27;98917.64;;;33.47;40.95
65872;BME280;52653;50.080;21.992;2022-08-18T12:30:02;98917.94;;;33.67;40.34
65872;BME280;52653;50.080;21.992;2022-08-18T12:32:35;98909.94;;;33.77;39.26
65872;BME280;52653;50.080;21.992;2022-08-18T12:35:26;98908.29;;;33.79;39.19
65872;BME280;52653;50.080;21.992;2022-08-18T12:37:58;98905.56;;;33.87;39.69
65872;BME280;52653;50.080;21.992;2022-08-18T12:40:50;98906.27;;;34.01;39.27
65872;BME280;52653;50.080;21.992;2022-08-18T12:43:22;98900.71;;;34.04;37.60
65872;BME280;52653;50.080;21.992;2022-08-18T12:46:01;98900.44;;;34.00;38.43
65872;BME280;52653;50.080;21.992;2022-08-18T12:48:38;98900.96;;;34.06;39.17
65872;BME280;52653;50.080;21.992;2022-08-18T12:51:10;98906.29;;;34.04;38.30
65872;BME280;52653;50.080;21.992;2022-08-18T12:53:46;98908.51;;;33.91;37.91
65872;BME280;52653;50.080;21.992;2022-08-18T12:56:30;98907.52;;;33.71;38.12
65872;BME280;52653;50.080;21.992;2022-08-18T12:59:06;98902.94;;;33.61;38.40
65872;BME280;52653;50.080;21.992;2022-08-18T13:01:39;98901.52;;;33.59;39.19
65872;BME280;52653;50.080;21.992;2022-08-18T13:04:12;98893.42;;;33.62;39.68
65872;BME280;52653;50.080;21.992;2022-08-18T13:06:50;98894.86;;;33.71;39.28
65872;BME280;52653;50.080;21.992;2022-08-18T13:09:35;98890.41;;;33.68;38.59
65872;BME280;52653;50.080;21.992;2022-08-18T13:12:23;98888.69;;;33.62;39.20
65872;BME280;52653;50.080;21.992;2022-08-18T13:14:59;98883.65;;;33.53;38.36
65872;BME280;52653;50.080;21.992;2022-08-18T13:17:31;98878.10;;;33.37;38.57
65872;BME280;52653;50.080;21.992;2022-08-18T13:20:08;98876.30;;;33.11;38.90
65872;BME280;52653;50.080;21.992;2022-08-18T13:22:43;98875.64;;;32.95;39.53
65872;BME280;52653;50.080;21.992;2022-08-18T13:25:16;98873.92;;;32.93;40.20
65872;BME280;52653;50.080;21.992;2022-08-18T13:28:08;98867.42;;;32.97;40.04
65872;BME280;52653;50.080;21.992;2022-08-18T13:30:43;98862.93;;;32.99;39.93
65872;BME280;52653;50.080;21.992;2022-08-18T13:33:15;98863.91;;;33.03;40.11
65872;BME280;52653;50.080;21.992;2022-08-18T13:36:08;98865.21;;;33.11;39.97
65872;BME280;52653;50.080;21.992;2022-08-18T13:38:40;98865.52;;;33.08;39.19
65872;BME280;52653;50.080;21.992;2022-08-18T13:41:13;98865.16;;;33.06;39.57
65872;BME280;52653;50.080;21.992;2022-08-18T13:43:46;98856.36;;;33.00;39.29
65872;BME280;52653;50.080;21.992;2022-08-18T13:46:19;98856.33;;;32.98;39.30
65872;BME280;52653;50.080;21.992;2022-08-18T13:49:08;98857.20;;;32.89;38.97
65872;BME280;52653;50.080;21.992;2022-08-18T13:51:42;98852.86;;;32.82;39.05
65872;BME280;52653;50.080;21.992;2022-08-18T13:54:21;98851.67;;;32.59;39.43
65872;BME280;52653;50.080;21.992;2022-08-18T13:57:04;98846.81;;;32.41;40.04
65872;BME280;52653;50.080;21.992;2022-08-18T13:59:40;98853.13;;;32.29;39.46
65872;BME280;52653;50.080;21.992;2022-08-18T14:02:16;98850.16;;;32.15;39.17
65872;BME280;52653;50.080;21.992;2022-08-18T14:04:56;98846.17;;;31.99;39.72
65872;BME280;52653;50.080;21.992;2022-08-18T14:07:28;98850.21;;;31.92;41.08